West Point, NE

7:20 PM CDT on August 28, 2015 (GMT -0500)
West Point Public Schools Alternative Energy Building | | Change Station
CLOSE
Current Station
Personal Weather Station
Location: West Point, NE
Elevation: 1575 ft
Nearby Weather Stations

Elev 1575 ft 41.84 °N, 96.69 °W | Updated 19 seconds ago

Overcast
Overcast
64.9 °F
Feels Like 64.9 °F
N
9.0
Wind Variable Wind from NNW
Gusts 9.0 mph

Today
High -- | Low -- °F
--% Chance of Precip.
Yesterday
High -- | Low -- °F
Precip. -- in
6:48 AM 8:07 PM
Waxing Gibbous, 99% visible
Pressure 29.90 in
Visibility 10.0 miles
Clouds Overcast 800 ft
Dew Point 61 °F
Humidity 87%
Rainfall 0.40 in
Snow Depth Not available.
UV 0 out of 12
Pollen 7.40 out of 12
Air Quality Not available.
Flu Activity Not available.
SPECI KTQE 290012Z AUTO 35012KT 10SM OVC008 19/18 A2990 RMK AO2 CIG 007V013 T01890178
Pressure 29.90 in
Visibility 10.0 miles
Clouds Overcast 800 ft
Dew Point 61 °F
Humidity 87%
Rainfall 0.40 in
Snow Depth Not available.
UV 0 out of 12
Pollen 7.40 out of 12
Air Quality Not available.
Flu Activity Not available.
SPECI KTQE 290012Z AUTO 35012KT 10SM OVC008 19/18 A2990 RMK AO2 CIG 007V013 T01890178

10-Day Weather Forecast

×

Almanac

Astronomy

Aug. 28, 2015 Rise Set
Actual Time
Civil Twilight
Nautical Twilight
Astronomical Twilight
Moon
Length of Visible Light
Length of Day
Tomorrow will be .
, % of the Moon is Illuminated

Today's Extremes

State Highs State Lows

Community

WunderPhotos

Upload Photos

1,850,545 photos uploaded!

WunderBlogs® & News

Nearby

Air Quality

  Air Quality AQ Index Pollutant
Not available.

Snow Depth

Station Depth Elevation

Earthquake Activity

City Distance Mag. Time & Date
Minimum magnitude displayed is 2.5.

Coastal Water Temperatures

Place Temperature

Stations

Nearby Weather Stations

Station Location Temp. Windchill Dew Point Humidity Wind Precip. Elev Updated Type